createdAt,value
2019-02-11T00:00:35.394Z,98379.77
2019-02-11T00:01:08.580Z,98379.77
2019-02-11T00:01:39.810Z,98351.94
2019-02-11T00:02:12.884Z,98370.20
2019-02-11T00:02:44.157Z,98355.85
2019-02-11T00:03:15.440Z,98364.98
2019-02-11T00:03:46.702Z,98364.98
2019-02-11T00:04:17.889Z,98354.98
2019-02-11T00:04:49.137Z,98374.54
2019-02-11T00:05:20.318Z,98374.11
2019-02-11T00:05:51.588Z,98366.72
2019-02-11T00:06:22.775Z,98366.72
2019-02-11T00:06:54.061Z,98367.59
2019-02-11T00:07:26.267Z,98370.20
2019-02-11T00:07:57.531Z,98370.20
2019-02-11T00:08:28.721Z,98369.33
2019-02-11T00:08:59.963Z,98369.33
2019-02-11T00:09:31.183Z,98351.50
2019-02-11T00:10:03.541Z,98351.50
2019-02-11T00:10:34.711Z,98371.95
2019-02-11T00:11:05.960Z,98371.95
2019-02-11T00:11:37.161Z,98359.33
2019-02-11T00:12:08.563Z,98359.33
2019-02-11T00:12:39.771Z,98371.08
2019-02-11T00:13:11.126Z,98370.64
2019-02-11T00:13:42.370Z,98373.69
2019-02-11T00:14:13.725Z,98373.69
2019-02-11T00:14:44.905Z,98371.08
2019-02-11T00:15:16.143Z,98355.43
2019-02-11T00:15:48.351Z,98355.43
2019-02-11T00:16:19.587Z,98375.84
2019-02-11T00:16:50.765Z,98375.84
2019-02-11T00:17:22.023Z,98372.79
2019-02-11T00:17:53.296Z,98362.37
2019-02-11T00:18:24.590Z,98362.37
2019-02-11T00:18:55.873Z,98378.47
2019-02-11T00:19:27.202Z,98350.22
2019-02-11T00:19:58.486Z,98382.82
2019-02-11T00:20:29.780Z,98382.82
2019-02-11T00:21:01.095Z,98382.82
2019-02-11T00:21:32.386Z,98373.67
2019-02-11T00:22:03.712Z,98376.72
2019-02-11T00:22:35.070Z,98377.58
2019-02-11T00:23:06.360Z,98379.31
2019-02-11T00:23:37.539Z,98379.31
2019-02-11T00:24:08.802Z,98376.30
2019-02-11T00:24:39.982Z,98376.30
2019-02-11T00:25:11.614Z,98365.42
2019-02-11T00:25:42.822Z,98377.17
2019-02-11T00:26:14.092Z,98361.50
2019-02-11T00:26:45.275Z,98370.64
2019-02-11T00:27:16.543Z,98370.64
2019-02-11T00:27:47.784Z,98371.50
2019-02-11T00:28:19.046Z,98371.50
2019-02-11T00:28:50.235Z,98370.20
2019-02-11T00:29:21.471Z,98368.02
2019-02-11T00:29:52.701Z,98354.98
2019-02-11T00:30:23.943Z,98352.37
2019-02-11T00:30:55.165Z,98368.89
2019-02-11T00:31:26.489Z,98376.72
2019-02-11T00:31:57.798Z,98357.16
2019-02-11T00:32:29.096Z,98369.34
2019-02-11T00:33:00.520Z,98369.33
2019-02-11T00:33:31.881Z,98375.86
2019-02-11T00:34:03.061Z,98373.25
2019-02-11T00:34:34.305Z,98369.77
2019-02-11T00:35:06.281Z,98373.25
2019-02-11T00:35:37.533Z,98381.08
2019-02-11T00:36:08.781Z,98381.08
2019-02-11T00:36:40.132Z,98379.33
2019-02-11T00:37:11.319Z,98379.33
2019-02-11T00:37:42.660Z,98377.16
2019-02-11T00:38:13.871Z,98389.34
2019-02-11T00:38:45.168Z,98389.34
2019-02-11T00:39:16.339Z,98381.94
2019-02-11T00:39:47.898Z,98381.94
2019-02-11T00:40:19.097Z,98383.67
2019-02-11T00:40:50.343Z,98367.59
2019-02-11T00:41:21.537Z,98367.59
2019-02-11T00:41:52.762Z,98388.02
2019-02-11T00:42:23.988Z,98391.50
2019-02-11T00:42:55.213Z,98391.50
2019-02-11T00:43:26.390Z,98386.72
2019-02-11T00:43:57.648Z,98386.72
2019-02-11T00:44:29.052Z,98392.83
2019-02-11T00:45:00.430Z,98382.39
2019-02-11T00:45:31.687Z,98384.13
2019-02-11T00:46:03.016Z,98384.13
2019-02-11T00:46:34.229Z,98374.12
2019-02-11T00:47:06.497Z,98398.05
2019-02-11T00:47:37.682Z,98382.39
2019-02-11T00:48:09.117Z,98388.02
2019-02-11T00:48:40.304Z,98388.02
2019-02-11T00:49:11.679Z,98371.50
2019-02-11T00:49:42.943Z,98385.87
2019-02-11T00:50:14.189Z,98384.11
2019-02-11T00:50:45.374Z,98379.77
2019-02-11T00:51:16.645Z,98379.77
2019-02-11T00:51:47.843Z,98387.60
2019-02-11T00:52:19.107Z,98366.29
2019-02-11T00:52:50.384Z,98366.29
2019-02-11T00:53:21.719Z,98362.80
2019-02-11T00:53:52.925Z,98363.68
2019-02-11T00:54:25.196Z,98387.17
2019-02-11T00:54:56.497Z,98392.82
2019-02-11T00:55:27.733Z,98380.64
2019-02-11T00:55:58.887Z,98380.64
2019-02-11T00:56:30.154Z,98382.38
2019-02-11T00:57:01.333Z,98382.38
2019-02-11T00:57:32.596Z,98378.03
2019-02-11T00:58:03.796Z,98373.25
2019-02-11T00:58:35.055Z,98373.25
2019-02-11T00:59:06.287Z,98381.95
2019-02-11T00:59:37.543Z,98364.56
2019-02-11T01:00:10.847Z,98381.52
2019-02-11T01:00:42.431Z,98382.83
2019-02-11T01:01:13.637Z,98382.83
2019-02-11T01:01:44.872Z,98375.86
2019-02-11T01:02:17.164Z,98385.86
2019-02-11T01:02:48.400Z,98385.86
2019-02-11T01:03:19.608Z,98385.00
2019-02-11T01:03:50.854Z,98380.63
2019-02-11T01:04:22.060Z,98380.63
2019-02-11T01:04:53.358Z,98377.58
2019-02-11T01:05:24.688Z,98361.52
2019-02-11T01:05:55.959Z,98360.64
2019-02-11T01:06:27.218Z,98372.36
2019-02-11T01:06:58.488Z,98378.45
2019-02-11T01:07:29.770Z,98374.97
2019-02-11T01:08:01.028Z,98371.92
2019-02-11T01:08:32.388Z,98362.82
2019-02-11T01:09:04.583Z,98361.50
2019-02-11T01:09:35.853Z,98374.11
2019-02-11T01:10:08.689Z,98375.41
2019-02-11T01:10:39.896Z,98382.37
2019-02-11T01:11:11.118Z,98362.83
2019-02-11T01:11:42.300Z,98362.83
2019-02-11T01:12:14.486Z,98385.84
2019-02-11T01:12:45.694Z,98382.38
2019-02-11T01:13:16.886Z,98386.30
2019-02-11T01:13:48.083Z,98386.30
2019-02-11T01:14:19.309Z,98383.24
2019-02-11T01:14:50.565Z,98383.24
2019-02-11T01:15:21.733Z,98381.50
2019-02-11T01:15:52.999Z,98381.50
2019-02-11T01:16:24.200Z,98378.05
2019-02-11T01:16:55.460Z,98378.05
2019-02-11T01:17:26.647Z,98370.22
2019-02-11T01:17:57.885Z,98362.37
2019-02-11T01:18:29.085Z,98355.42
2019-02-11T01:19:01.333Z,98372.82
2019-02-11T01:19:32.509Z,98372.82
2019-02-11T01:20:07.822Z,98359.33
2019-02-11T01:20:39.097Z,98371.08
2019-02-11T01:21:16.107Z,98370.21
2019-02-11T01:21:55.165Z,98371.08
2019-02-11T01:22:33.011Z,98371.08
2019-02-11T01:23:12.051Z,98361.52
2019-02-11T01:23:43.290Z,98359.33
2019-02-11T01:24:14.472Z,98364.13
2019-02-11T01:25:40.578Z,98365.84
2019-02-11T01:26:12.240Z,98366.30
2019-02-11T01:26:43.535Z,98341.97
2019-02-11T01:27:14.930Z,98341.97
2019-02-11T01:27:46.268Z,98369.33
2019-02-11T01:28:17.565Z,98365.00
2019-02-11T01:28:48.880Z,98349.33
2019-02-11T01:29:20.139Z,98349.33
2019-02-11T01:29:51.454Z,98366.73
2019-02-11T01:30:22.705Z,98359.79
2019-02-11T01:30:53.960Z,98375.44
2019-02-11T01:31:25.208Z,98350.20
2019-02-11T01:31:56.384Z,98368.47
2019-02-11T01:32:27.635Z,98368.47
2019-02-11T01:32:58.826Z,98372.81
2019-02-11T01:33:30.089Z,98372.81
2019-02-11T01:34:01.274Z,98352.84
2019-02-11T01:34:32.528Z,98352.39
2019-02-11T01:35:05.425Z,98383.27
2019-02-11T01:35:36.676Z,98376.30
2019-02-11T01:36:07.904Z,98371.09
2019-02-11T01:36:39.304Z,98373.70
2019-02-11T01:37:10.514Z,98368.92
2019-02-11T01:37:41.750Z,98368.92
2019-02-11T01:38:12.962Z,98379.80
2019-02-11T01:38:44.231Z,98378.05
2019-02-11T01:39:15.409Z,98379.78
2019-02-11T01:39:46.749Z,98372.83
2019-02-11T01:40:17.945Z,98372.83
2019-02-11T01:40:49.207Z,98383.26
2019-02-11T01:41:21.510Z,98383.25
2019-02-11T01:41:52.683Z,98383.25
2019-02-11T01:42:23.934Z,98363.26
2019-02-11T01:42:55.112Z,98363.27
2019-02-11T01:43:26.361Z,98381.53
2019-02-11T01:43:57.549Z,98380.66
2019-02-11T01:44:28.828Z,98385.00
2019-02-11T01:45:00.005Z,98385.00
2019-02-11T01:45:31.265Z,98365.44
2019-02-11T01:46:02.455Z,98382.38
2019-02-11T01:46:33.713Z,98384.56
2019-02-11T01:47:04.929Z,98384.56
2019-02-11T01:47:36.195Z,98384.99
2019-02-11T01:48:07.368Z,98384.99
2019-02-11T01:48:38.803Z,98383.28
2019-02-11T01:49:09.948Z,98388.03
2019-02-11T01:49:41.234Z,98384.13
2019-02-11T01:50:12.468Z,98375.86
2019-02-11T01:50:43.680Z,98375.86
2019-02-11T01:51:14.869Z,98354.99
2019-02-11T01:51:46.109Z,98377.16
2019-02-11T01:52:17.327Z,98353.69
2019-02-11T01:52:48.541Z,98377.17
2019-02-11T01:53:19.751Z,98377.17
2019-02-11T01:53:50.988Z,98379.80
2019-02-11T01:54:22.202Z,98379.33
2019-02-11T01:54:53.446Z,98362.41
2019-02-11T01:55:25.632Z,98362.41
2019-02-11T01:55:56.843Z,98374.56
2019-02-11T01:56:28.058Z,98379.78
2019-02-11T01:56:59.284Z,98379.78
2019-02-11T01:57:30.506Z,98378.05
2019-02-11T01:58:01.724Z,98378.05
2019-02-11T01:58:32.930Z,98369.35
2019-02-11T01:59:04.167Z,98364.58
2019-02-11T01:59:35.380Z,98369.80
2019-02-11T02:00:12.772Z,98367.61
2019-02-11T02:00:44.097Z,98367.61
2019-02-11T02:01:15.370Z,98364.14
2019-02-11T02:01:46.647Z,98344.14
2019-02-11T02:02:17.941Z,98344.14
2019-02-11T02:02:49.212Z,98360.23
2019-02-11T02:03:20.491Z,98360.23
2019-02-11T02:03:51.792Z,98348.92
2019-02-11T02:04:23.084Z,98361.53
2019-02-11T02:04:54.361Z,98366.75
2019-02-11T02:05:25.639Z,98359.36
2019-02-11T02:05:56.861Z,98360.66
2019-02-11T02:06:28.103Z,98363.70
2019-02-11T02:06:59.275Z,98363.70
2019-02-11T02:07:30.547Z,98350.22
2019-02-11T02:08:01.709Z,98344.98
2019-02-11T02:08:32.941Z,98356.31
2019-02-11T02:09:04.540Z,98335.02
2019-02-11T02:09:35.777Z,98335.02
2019-02-11T02:10:10.992Z,98354.55
2019-02-11T02:10:42.407Z,98358.91
2019-02-11T02:11:13.607Z,98358.91
2019-02-11T02:11:44.901Z,98358.48
2019-02-11T02:12:16.108Z,98358.48
2019-02-11T02:12:47.410Z,98345.01
2019-02-11T02:13:18.592Z,98351.52
2019-02-11T02:13:49.928Z,98355.88
2019-02-11T02:14:21.110Z,98352.82
2019-02-11T02:14:52.369Z,98351.94
2019-02-11T02:15:23.576Z,98351.50
2019-02-11T02:15:54.806Z,98351.50
2019-02-11T02:16:26.014Z,98344.55
2019-02-11T02:16:57.253Z,98344.12
2019-02-11T02:17:28.497Z,98350.20
2019-02-11T02:17:59.726Z,98344.55
2019-02-11T02:18:30.941Z,98350.20
2019-02-11T02:19:02.171Z,98345.84
2019-02-11T02:19:33.376Z,98347.61
2019-02-11T02:20:09.690Z,98347.61
2019-02-11T02:20:40.924Z,98348.02
2019-02-11T02:21:12.348Z,98347.61
2019-02-11T02:21:43.562Z,98347.61
2019-02-11T02:22:14.799Z,98350.63
2019-02-11T02:22:46.016Z,98345.00
2019-02-11T02:23:17.250Z,98348.05
2019-02-11T02:23:48.471Z,98344.12
2019-02-11T02:24:19.693Z,98344.12
2019-02-11T02:24:50.893Z,98342.81
2019-02-11T02:25:22.139Z,98347.17
2019-02-11T02:25:53.414Z,98347.17
2019-02-11T02:26:24.695Z,98347.17
2019-02-11T02:26:55.997Z,98347.15
2019-02-11T02:27:27.287Z,98347.15
2019-02-11T02:27:58.553Z,98346.28
2019-02-11T02:28:29.823Z,98347.16
2019-02-11T02:29:01.101Z,98335.85
2019-02-11T02:29:32.387Z,98341.50
2019-02-11T02:30:07.638Z,98347.59
2019-02-11T02:30:39.131Z,98317.62
2019-02-11T02:31:10.361Z,98317.62
2019-02-11T02:31:41.634Z,98336.71
2019-02-11T02:32:12.829Z,98317.61
2019-02-11T02:32:44.090Z,98317.61
2019-02-11T02:33:15.391Z,98336.28
2019-02-11T02:33:46.661Z,98339.32
2019-02-11T02:34:17.830Z,98339.32
2019-02-11T02:34:49.067Z,98323.27
2019-02-11T02:35:20.316Z,98338.48
2019-02-11T02:35:51.610Z,98336.30
2019-02-11T02:36:22.905Z,98323.70
2019-02-11T02:36:54.161Z,98323.70
2019-02-11T02:37:25.450Z,98339.78
2019-02-11T02:37:56.760Z,98339.78
2019-02-11T02:38:28.058Z,98337.17
2019-02-11T02:38:59.422Z,98337.17
2019-02-11T02:39:30.839Z,98348.03
2019-02-11T02:40:04.798Z,98346.72
2019-02-11T02:40:36.078Z,98348.47
2019-02-11T02:41:07.250Z,98348.47
2019-02-11T02:41:38.461Z,98348.91
2019-02-11T02:42:09.713Z,98351.08
2019-02-11T02:42:40.893Z,98333.26
2019-02-11T02:43:13.090Z,98353.27
2019-02-11T02:43:44.315Z,98353.27
2019-02-11T02:44:15.498Z,98338.48
2019-02-11T02:44:46.689Z,98346.72
2019-02-11T02:45:17.951Z,98359.33
2019-02-11T02:45:49.174Z,98345.41
2019-02-11T02:46:20.380Z,98334.98
2019-02-11T02:46:51.660Z,98342.38
2019-02-11T02:47:22.919Z,98352.81
2019-02-11T02:47:54.173Z,98345.42
2019-02-11T02:48:25.417Z,98349.75
2019-02-11T02:48:56.718Z,98353.23
2019-02-11T02:49:27.899Z,98345.84
2019-02-11T02:49:59.159Z,98357.59
2019-02-11T02:50:30.318Z,98357.59
2019-02-11T02:51:01.621Z,98354.98
2019-02-11T02:51:32.786Z,98338.47
2019-02-11T02:52:04.051Z,98341.94
2019-02-11T02:52:35.237Z,98338.03
2019-02-11T02:53:07.467Z,98338.03
2019-02-11T02:53:38.675Z,98345.44
2019-02-11T02:54:09.953Z,98351.94
2019-02-11T02:54:41.165Z,98360.20
2019-02-11T02:55:12.420Z,98352.38
2019-02-11T02:55:43.602Z,98360.20
2019-02-11T02:56:14.879Z,98358.89
2019-02-11T02:56:46.059Z,98352.38
2019-02-11T02:57:17.293Z,98362.37
2019-02-11T02:57:48.474Z,98349.77
2019-02-11T02:58:19.734Z,98362.35
2019-02-11T02:58:50.917Z,98348.45
2019-02-11T02:59:22.172Z,98338.89
2019-02-11T02:59:53.375Z,98338.89
2019-02-11T03:00:24.636Z,98340.63
2019-02-11T03:00:55.845Z,98352.80
2019-02-11T03:01:27.200Z,98353.68
2019-02-11T03:01:58.384Z,98353.68
2019-02-11T03:02:29.620Z,98354.98
2019-02-11T03:03:00.813Z,98334.99
2019-02-11T03:03:32.044Z,98334.99
2019-02-11T03:04:03.207Z,98352.81
2019-02-11T03:04:34.463Z,98351.52
2019-02-11T03:05:07.732Z,98344.98
2019-02-11T03:05:38.968Z,98343.68
2019-02-11T03:06:10.162Z,98346.69
2019-02-11T03:06:41.767Z,98334.99
2019-02-11T03:07:12.972Z,98348.47
2019-02-11T03:07:44.224Z,98349.34
2019-02-11T03:08:15.406Z,98349.34
2019-02-11T03:08:46.668Z,98349.34
2019-02-11T03:09:17.853Z,98353.26
2019-02-11T03:09:49.090Z,98350.20
2019-02-11T03:10:21.276Z,98353.69
2019-02-11T03:10:52.542Z,98353.69
2019-02-11T03:11:23.756Z,98340.20
2019-02-11T03:11:54.978Z,98359.34
2019-02-11T03:12:26.229Z,98359.34
2019-02-11T03:12:57.409Z,98337.16
2019-02-11T03:13:28.657Z,98344.11
2019-02-11T03:14:05.871Z,98346.30
2019-02-11T03:14:33.000Z,98346.30
2019-02-11T03:15:08.199Z,98364.12
2019-02-11T03:15:39.472Z,98361.48
2019-02-11T03:16:10.655Z,98361.95
2019-02-11T03:16:42.919Z,98363.25
2019-02-11T03:17:14.103Z,98363.25
2019-02-11T03:17:45.367Z,98363.25
2019-02-11T03:18:16.606Z,98367.57
2019-02-11T03:18:47.847Z,98367.16
2019-02-11T03:19:19.035Z,98362.35
2019-02-11T03:19:50.309Z,98369.33
2019-02-11T03:20:21.549Z,98356.27
2019-02-11T03:20:52.857Z,98371.50
2019-02-11T03:21:24.016Z,98371.50
2019-02-11T03:21:55.319Z,98375.84
2019-02-11T03:22:26.502Z,98376.72
2019-02-11T03:22:57.746Z,98376.72
2019-02-11T03:23:28.973Z,98352.80
2019-02-11T03:24:00.216Z,98352.80
2019-02-11T03:24:31.386Z,98370.64
2019-02-11T03:25:05.209Z,98363.68
2019-02-11T03:25:36.402Z,98362.81
2019-02-11T03:26:07.750Z,98325.87
2019-02-11T03:26:39.313Z,98362.80
2019-02-11T03:27:10.599Z,98361.06
2019-02-11T03:27:41.799Z,98360.20
2019-02-11T03:28:13.059Z,98354.11
2019-02-11T03:28:44.258Z,98331.94
2019-02-11T03:29:15.492Z,98331.94
2019-02-11T03:29:46.686Z,98352.38
2019-02-11T03:30:17.929Z,98352.38
2019-02-11T03:30:49.102Z,98355.42
2019-02-11T03:31:20.350Z,98360.20
2019-02-11T03:31:51.547Z,98358.90
2019-02-11T03:32:22.883Z,98344.98
2019-02-11T03:32:54.056Z,98354.09
2019-02-11T03:33:25.348Z,98361.09
2019-02-11T03:33:56.553Z,98347.14
2019-02-11T03:34:27.821Z,98347.14
2019-02-11T03:34:59.018Z,98361.96
2019-02-11T03:35:30.259Z,98364.14
2019-02-11T03:36:01.443Z,98345.84
2019-02-11T03:36:32.716Z,98344.97
2019-02-11T03:37:03.869Z,98344.97
2019-02-11T03:37:35.122Z,98356.27
2019-02-11T03:38:06.289Z,98366.75
2019-02-11T03:38:37.525Z,98367.61
2019-02-11T03:39:08.721Z,98365.00
2019-02-11T03:39:39.995Z,98353.67
2019-02-11T03:40:11.285Z,98368.48
2019-02-11T03:40:42.548Z,98361.95
2019-02-11T03:41:13.723Z,98361.95
2019-02-11T03:41:44.977Z,98362.34
2019-02-11T03:42:16.138Z,98362.34
2019-02-11T03:42:47.392Z,98361.48
2019-02-11T03:43:18.575Z,98364.55
2019-02-11T03:43:49.820Z,98362.37
2019-02-11T03:44:21.024Z,98371.08
2019-02-11T03:44:52.271Z,98378.91
2019-02-11T03:45:23.666Z,98378.91
2019-02-11T03:45:54.950Z,98371.08
2019-02-11T03:46:26.150Z,98371.08
2019-02-11T03:46:57.395Z,98368.89
2019-02-11T03:47:28.582Z,98368.89
2019-02-11T03:47:59.840Z,98363.25
2019-02-11T03:48:31.062Z,98377.17
2019-02-11T03:49:02.304Z,98377.17
2019-02-11T03:49:33.486Z,98370.66
2019-02-11T03:50:10.566Z,98370.66
2019-02-11T03:50:41.760Z,98361.06
2019-02-11T03:51:13.015Z,98361.06
2019-02-11T03:51:44.207Z,98371.97
2019-02-11T03:52:15.466Z,98375.02
2019-02-11T03:52:46.656Z,98375.02
2019-02-11T03:53:17.948Z,98367.59
2019-02-11T03:53:49.238Z,98365.86
2019-02-11T03:54:20.461Z,98378.94
2019-02-11T03:54:51.644Z,98371.97
2019-02-11T03:55:22.905Z,98355.41
2019-02-11T03:55:54.084Z,98372.41
2019-02-11T03:56:25.346Z,98372.41
2019-02-11T03:56:56.561Z,98376.73
2019-02-11T03:57:27.827Z,98372.41
2019-02-11T03:57:59.014Z,98366.73
2019-02-11T03:58:31.357Z,98358.91
2019-02-11T03:59:02.542Z,98375.02
2019-02-11T03:59:33.787Z,98375.02
2019-02-11T04:00:09.781Z,98367.14
2019-02-11T04:00:40.971Z,98358.03
2019-02-11T04:01:12.204Z,98358.03
2019-02-11T04:01:43.403Z,98381.08
2019-02-11T04:02:14.642Z,98376.33
2019-02-11T04:02:45.846Z,98370.19
2019-02-11T04:03:17.044Z,98370.19
2019-02-11T04:03:48.249Z,98382.84
2019-02-11T04:04:19.461Z,98384.16
2019-02-11T04:04:50.703Z,98385.87
2019-02-11T04:05:21.922Z,98381.52
2019-02-11T04:05:53.129Z,98382.39
2019-02-11T04:06:24.371Z,98385.45
2019-02-11T04:06:55.595Z,98385.45
2019-02-11T04:07:26.809Z,98357.58
2019-02-11T04:07:58.021Z,98381.53
2019-02-11T04:08:29.252Z,98390.66
2019-02-11T04:09:00.483Z,98386.75
2019-02-11T04:09:31.679Z,98388.93
2019-02-11T04:10:09.050Z,98388.93
2019-02-11T04:10:40.283Z,98370.18
2019-02-11T04:11:11.624Z,98370.18
2019-02-11T04:11:42.852Z,98382.39
2019-02-11T04:12:15.066Z,98373.69
2019-02-11T04:12:46.252Z,98381.97
2019-02-11T04:13:17.528Z,98367.63
2019-02-11T04:13:48.806Z,98378.46
2019-02-11T04:14:25.095Z,98371.51
2019-02-11T04:14:53.155Z,98371.51
2019-02-11T04:15:24.427Z,98372.38
2019-02-11T04:15:55.618Z,98373.25
2019-02-11T04:16:26.874Z,98373.25
2019-02-11T04:16:58.062Z,98377.60
2019-02-11T04:17:29.326Z,98380.64
2019-02-11T04:18:00.506Z,98380.64
2019-02-11T04:18:31.740Z,98363.66
2019-02-11T04:19:02.954Z,98385.44
2019-02-11T04:19:34.187Z,98385.44
2019-02-11T04:20:06.764Z,98375.44
2019-02-11T04:20:38.694Z,98384.13
2019-02-11T04:21:09.864Z,98369.34
2019-02-11T04:21:41.103Z,98379.77
2019-02-11T04:22:12.292Z,98361.52
2019-02-11T04:22:43.541Z,98360.64
2019-02-11T04:23:14.735Z,98372.84
2019-02-11T04:23:46.006Z,98361.09
2019-02-11T04:24:17.205Z,98361.09
2019-02-11T04:24:48.468Z,98383.70
2019-02-11T04:25:19.679Z,98383.70
2019-02-11T04:25:50.923Z,98383.70
2019-02-11T04:26:22.146Z,98383.70
2019-02-11T04:26:53.433Z,98391.95
2019-02-11T04:27:24.715Z,98391.95
2019-02-11T04:27:56.003Z,98397.16
2019-02-11T04:28:27.271Z,98397.16
2019-02-11T04:28:58.763Z,98392.84
2019-02-11T04:29:30.178Z,98398.49
2019-02-11T04:30:01.461Z,98395.88
2019-02-11T04:30:32.642Z,98395.88
2019-02-11T04:31:03.907Z,98379.31
2019-02-11T04:31:35.116Z,98404.59
2019-02-11T04:32:06.372Z,98404.59
2019-02-11T04:32:37.569Z,98393.28
2019-02-11T04:33:09.823Z,98398.05
2019-02-11T04:33:41.053Z,98382.40
2019-02-11T04:34:12.451Z,98394.14
2019-02-11T04:34:43.688Z,98385.44
2019-02-11T04:35:14.930Z,98387.18
2019-02-11T04:35:46.151Z,98382.83
2019-02-11T04:36:17.408Z,98382.83
2019-02-11T04:36:48.590Z,98379.79
2019-02-11T04:37:19.830Z,98360.66
2019-02-11T04:37:51.008Z,98382.39
2019-02-11T04:38:22.236Z,98371.95
2019-02-11T04:38:53.404Z,98380.22
2019-02-11T04:39:24.663Z,98362.34
2019-02-11T04:39:55.875Z,98362.34
2019-02-11T04:40:27.182Z,98379.78
2019-02-11T04:40:58.481Z,98375.44
2019-02-11T04:41:29.710Z,98375.44
2019-02-11T04:42:00.895Z,98391.97
2019-02-11T04:42:32.144Z,98399.77
2019-02-11T04:43:03.321Z,98399.77
2019-02-11T04:43:34.575Z,98380.66
2019-02-11T04:44:05.770Z,98371.09
2019-02-11T04:44:37.011Z,98368.89
2019-02-11T04:45:08.681Z,98368.89
2019-02-11T04:45:39.904Z,98379.35
2019-02-11T04:46:11.109Z,98379.77
2019-02-11T04:46:42.347Z,98380.23
2019-02-11T04:47:13.529Z,98380.23
2019-02-11T04:47:45.780Z,98373.72
2019-02-11T04:48:16.959Z,98367.57
2019-02-11T04:48:48.241Z,98371.95
2019-02-11T04:49:19.421Z,98371.95
2019-02-11T04:49:50.707Z,98382.39
2019-02-11T04:50:21.919Z,98385.89
2019-02-11T04:50:53.201Z,98386.76
2019-02-11T04:51:24.487Z,98386.76
2019-02-11T04:51:55.790Z,98392.84
2019-02-11T04:52:27.080Z,98391.53
2019-02-11T04:52:58.370Z,98381.06
2019-02-11T04:53:29.650Z,98395.44
2019-02-11T04:54:00.989Z,98395.44
2019-02-11T04:54:32.273Z,98397.62
2019-02-11T04:55:06.864Z,98382.39
2019-02-11T04:55:38.109Z,98382.39
2019-02-11T04:56:09.298Z,98381.92
2019-02-11T04:56:40.586Z,98396.75
2019-02-11T04:57:11.852Z,98391.98
2019-02-11T04:57:43.099Z,98399.81
2019-02-11T04:58:14.284Z,98396.31
2019-02-11T04:58:45.524Z,98394.16
2019-02-11T04:59:16.732Z,98395.00
2019-02-11T04:59:47.966Z,98386.73
2019-02-11T05:00:19.205Z,98402.86
2019-02-11T05:00:50.420Z,98402.86
2019-02-11T05:01:21.647Z,98386.73
2019-02-11T05:01:52.882Z,98403.29
2019-02-11T05:02:24.129Z,98403.29
2019-02-11T05:02:55.327Z,98394.55
2019-02-11T05:03:26.552Z,98403.29
2019-02-11T05:03:57.756Z,98403.29
2019-02-11T05:04:28.991Z,98402.42
2019-02-11T05:05:00.234Z,98402.42
2019-02-11T05:05:31.549Z,98398.05
2019-02-11T05:06:02.757Z,98385.42
2019-02-11T05:06:33.981Z,98412.86
2019-02-11T05:07:06.847Z,98412.86
2019-02-11T05:07:38.113Z,98388.47
2019-02-11T05:08:09.325Z,98406.73
2019-02-11T05:08:40.556Z,98409.80
2019-02-11T05:09:11.791Z,98400.22
2019-02-11T05:09:42.995Z,98416.32
2019-02-11T05:10:15.426Z,98420.23
2019-02-11T05:10:46.645Z,98420.23
2019-02-11T05:11:17.860Z,98417.18
2019-02-11T05:11:49.195Z,98401.06
2019-02-11T05:12:20.419Z,98417.63
2019-02-11T05:12:51.591Z,98416.32
2019-02-11T05:13:22.853Z,98416.32
2019-02-11T05:13:54.057Z,98413.24
2019-02-11T05:14:25.306Z,98394.57
2019-02-11T05:14:56.512Z,98394.55
2019-02-11T05:15:27.756Z,98411.12
2019-02-11T05:15:58.972Z,98408.95
2019-02-11T05:16:30.200Z,98408.95
2019-02-11T05:17:01.412Z,98410.66
2019-02-11T05:17:32.632Z,98410.66
2019-02-11T05:18:03.863Z,98410.66
2019-02-11T05:18:35.163Z,98410.66
2019-02-11T05:19:06.379Z,98397.16
2019-02-11T05:19:37.622Z,98397.16
2019-02-11T05:20:10.784Z,98413.72
2019-02-11T05:20:42.354Z,98414.16
2019-02-11T05:21:13.968Z,98396.73
2019-02-11T05:21:45.210Z,98408.94
2019-02-11T05:22:16.428Z,98409.81
2019-02-11T05:22:47.670Z,98410.67
2019-02-11T05:23:18.960Z,98410.67
2019-02-11T05:23:50.200Z,98393.25
2019-02-11T05:24:21.525Z,98403.72
2019-02-11T05:24:52.859Z,98415.47
2019-02-11T05:25:24.087Z,98384.98
2019-02-11T05:25:55.434Z,98410.67
2019-02-11T05:26:26.655Z,98411.98
2019-02-11T05:26:57.995Z,98411.98
2019-02-11T05:27:29.885Z,98414.16
2019-02-11T05:28:01.162Z,98416.77
2019-02-11T05:28:32.448Z,98404.12
2019-02-11T05:29:04.657Z,98429.36
2019-02-11T05:29:36.003Z,98430.67
2019-02-11T05:30:10.104Z,98412.83
2019-02-11T05:30:41.565Z,98412.83
2019-02-11T05:31:12.803Z,98423.30
2019-02-11T05:31:43.993Z,98433.28
2019-02-11T05:32:15.235Z,98406.73
2019-02-11T05:32:46.470Z,98423.73
2019-02-11T05:33:17.745Z,98435.03
2019-02-11T05:33:49.028Z,98435.46
2019-02-11T05:34:20.440Z,98441.55
2019-02-11T05:34:51.695Z,98436.34
2019-02-11T05:35:23.925Z,98436.34
2019-02-11T05:35:55.148Z,98430.25
2019-02-11T05:36:26.400Z,98424.59
2019-02-11T05:36:57.641Z,98426.33
2019-02-11T05:37:28.884Z,98424.59
2019-02-11T05:38:00.048Z,98424.59
2019-02-11T05:38:31.294Z,98427.62
2019-02-11T05:39:04.519Z,98420.67
2019-02-11T05:39:35.766Z,98425.89
2019-02-11T05:40:10.378Z,98419.37
2019-02-11T05:40:41.724Z,98419.38
2019-02-11T05:41:12.979Z,98432.00
2019-02-11T05:41:44.283Z,98432.00
2019-02-11T05:42:15.560Z,98406.33
2019-02-11T05:42:46.850Z,98406.33
2019-02-11T05:43:18.068Z,98428.95
2019-02-11T05:43:49.306Z,98427.66
2019-02-11T05:44:20.475Z,98430.69
2019-02-11T05:44:53.903Z,98432.42
2019-02-11T05:45:24.774Z,98418.94
2019-02-11T05:45:56.042Z,98421.11
2019-02-11T05:46:27.352Z,98421.11
2019-02-11T05:46:58.557Z,98406.31
2019-02-11T05:47:29.872Z,98430.67
2019-02-11T05:48:01.107Z,98430.67
2019-02-11T05:48:32.310Z,98430.67
2019-02-11T05:49:03.531Z,98431.55
2019-02-11T05:49:34.746Z,98431.55
2019-02-11T05:50:09.385Z,98428.50
2019-02-11T05:50:40.627Z,98426.77
2019-02-11T05:51:11.918Z,98418.94
2019-02-11T05:51:43.146Z,98418.94
2019-02-11T05:52:14.355Z,98433.73
2019-02-11T05:52:45.577Z,98431.10
2019-02-11T05:53:16.802Z,98431.10
2019-02-11T05:53:48.019Z,98420.70
2019-02-11T05:54:19.222Z,98420.70
2019-02-11T05:54:50.435Z,98417.64
2019-02-11T05:55:23.858Z,98438.52
2019-02-11T05:55:54.769Z,98420.69
2019-02-11T05:56:26.008Z,98420.69
2019-02-11T05:56:57.159Z,98425.47
2019-02-11T05:57:28.486Z,98425.47
2019-02-11T05:57:59.659Z,98438.93
2019-02-11T05:58:30.921Z,98423.73
2019-02-11T05:59:02.128Z,98426.77
2019-02-11T05:59:34.481Z,98427.59
2019-02-11T06:00:10.250Z,98424.15
2019-02-11T06:00:41.723Z,98442.42
2019-02-11T06:01:13.024Z,98445.92
2019-02-11T06:01:44.311Z,98444.19
2019-02-11T06:02:17.411Z,98444.19
2019-02-11T06:02:48.670Z,98446.33
2019-02-11T06:03:19.968Z,98430.23
2019-02-11T06:03:51.243Z,98441.11
2019-02-11T06:04:22.470Z,98433.30
2019-02-11T06:04:53.702Z,98433.73
2019-02-11T06:05:24.884Z,98419.34
2019-02-11T06:05:56.134Z,98448.97
2019-02-11T06:06:27.386Z,98455.48
2019-02-11T06:06:58.644Z,98455.48
2019-02-11T06:07:29.933Z,98437.21
2019-02-11T06:08:01.214Z,98437.21
2019-02-11T06:08:32.532Z,98456.78
2019-02-11T06:09:04.319Z,98460.26
2019-02-11T06:09:35.578Z,98460.26
2019-02-11T06:10:08.965Z,98441.98
2019-02-11T06:10:40.236Z,98442.41